ダッカ の空港の天気 - METARとTAF

シャージャラル国際空港(ダッカ) ( VGHS / DAC ) - バングラデシュ ダッカ
飛行場実況気象(Metar)
観測時間01/20 11:00 BDT (01/20 05:00 UTC)
風向・風速北西 3m/s
視程1200m
天気現象もや
なし
気温20℃
湿度73%
気圧1015hPa
METARVGHS 200500Z 32006KT 1200 BR NSC 20/15 Q1015 BECMG S/VIS 1500M
過去の天気等 Google飛行場航空写真 Wunderground天気予報

過去48時間のMETAR

飛行場予報(TAF)
発表時間: 1/20 05:00 BDT (1/19 23:00 UTC)
予報対象時間: 20日6時 BDT ~ 21日12時 BDT
風向・風速静穏
視程800m
天気現象
全天の8割程度の雲 雲底高度 300m
20日9時 BDT ~ 20日11時 BDT に徐々に
風向・風速西北西 3m/s
視程2,000m
天気現象もや
全天の4割程度の雲 雲底高度 370m
20日11時 BDT ~ 20日13時 BDT に徐々に
風向・風速西北西 3m/s
視程3,000m
天気現象煙霧
なし
20日13時 BDT ~ 20日15時 BDT に徐々に
風向・風速西 3m/s
視程3,500m
天気現象煙霧
なし
21日0時 BDT ~ 21日2時 BDT に徐々に
風向・風速西北西 3m/s
視程2,500m
天気現象煙霧
なし
21日4時 BDT ~ 21日6時 BDT に徐々に
風向・風速西 2m/s
視程1,500m
天気現象もや
なし
21日6時 BDT ~ 21日8時 BDT に徐々に
風向・風速静穏
視程800m
天気現象
全天の8割程度の雲 雲底高度 300m
21日9時 BDT ~ 21日11時 BDT に徐々に
風向・風速北北西 3m/s
TAF VGHS 192300Z 2000/2106 00000KT 0800 FG BKN010
BECMG 2003/2005 29005KT 2000 BR SCT012
BECMG 2005/2007 30005KT 3000 HZ NSC
BECMG 2007/2009 28006KT 3500 HZ NSC
BECMG 2018/2020 30005KT 2500 HZ NSC
BECMG 2022/2024 28004KT 1500 BR NSC
BECMG 2100/2102 00000KT 0800 FG BKN010
BECMG 2103/2105 33005KT 15 BR SCT012